FLIGHT INFORMATION
PMDG Flight Operations

PFO12

At Arrival Gate

PHNL
 PHOG
DATE: 2019-01-03
GATE: C
GATE DEPARTURE: 05:07
TAKEOFF: 05:21
DATE: 2019-01-03
GATE:  -
LANDING: 05:45
GATE ARRIVAL: 05:52
FLIGHT DATA
Crew: KYLE WEBER
Speed: 390 kts Altitude: 11000 ft
Stage Length: 87 nm
Route: PALAY ROSHE LNY KEIKI CAMPS
Block Time: 0.8 Flight Time: 0.4
Fuel Used: 14539 LB
TRACK DATA
50000 FT1000 KTAltitudeSpeed
AIRCRAFT INFORMATION
Aircraft Type: B744F
Registration: N744PF
SELCAL:  MSN/LN: 0 / 3
Operator: PMDG FLIGHT OPERATIONS
Flights: 7 Block Time: 36.2 Flight Time: 34.5
Fuel Used: 735663 LB
  • DEPARTURE INFORMATION
    Date: 2019-01-03
    Airport: PHNL
    Gate: C
    Gate Departure: 05:07
    Takeoff: 05:21
    ARRIVAL INFORMATION
    Date: 2019-01-03
    Airport: PHOG
    Gate:  -
    Landing: 05:45
    Gate Arrival: 05:52
  • FLIGHT DATA
    Crew: KYLE WEBER
    Speed: 390 kts Altitude: 11000 ft
    Stage Length: 47 nm
    Route: PALAY ROSHE LNY KEIKI CAMPS
    Block Time: 0.8 Flight Time: 0.4
    Fuel Used: 14539 LB
  • AIRCRAFT INFORMATION
    Aircraft Type: B744F
    Registration: N744PF
    SELCAL:  MSN/LN: 0 / 3
    Operator: PMDG Flight Operations
    Flights: 7 Block Time: 36.2 Flight Time: 34.5
    Fuel Used: 735663 LB

DATALINK LOG | Newest first | Current as of: 2020-08-11 09:24:44
LABEL SEQUENCE CONTENT Dn/Up
QD520105:52 45.4▼ Dn
QC453505:45▼ Dn
GA3817ADVANCED GATE ASSIGNMENTS NOT YET AVAILABLE AT THIS AIRPORT▲ Up
GR4256PHOG 05:43 MAAS YP/UM WCHR/S/C HI-VAL NO▼ Dn
QB213105:21▼ Dn
2U0706PHNL 030453Z 06014KT 10SM FEW024 FEW038 26/18 A3005 RMK AO2 SLP175 T02560178▲ Up
QA074305:07 60▼ Dn
2S0706PHNL▼ Dn
5U0557PHOG 030901Z 06012G20KT 10SM FEW045 24/19 A3001▲ Up
5S0557PHOG▼ Dn
2U0449PHOG 030354Z 06015G21KT 10SM FEW035 SCT050 24/19 A3001 RMK AO2 PK WND 06026/0305 SLP166 T02440189 $▲ Up
2S0449PHOG▼ Dn


AIRCRAFT HISTORY
FLIGHT DATE FLIGHT NO. ORIGIN DESTINATION ROUTE BLOCK TIME FLIGHT TIME FUEL USED (LB) PILOT
2019-03-09PFO309KLAX EDDF KLAX DOCKR WEILR SHAEF PEVEE HOLTZ DOTSS EYEDL HOMER CLEEE PKE LANCY DRK PUB OBH FOD DLL MTW TVC SILVU YYB YQB MIILS IBERG 4950N 5040N 5130N 5220N TOBOR RILED SLANY STU DIKAS GAVGO KENET CPT NORRY LINDY GOXUL BIG DIKVU LAVRI EMKAD UMTUM DVR KONAN KOK FERDI BUPAL REMBA SPI PESOV TOBOP NIVNU RASVO PIPEP UNOKO IBVIL MANUV RAMOB ROKIM MTR EDDF10.410216595Kyle Rodgers
2019-03-06PFO305PHTO KLAX PHTO EBBER ELOYI ERROT ETNIC ETECO EDSEL EDTOO ELKEY VTU SADDE BAYST SMO HUNDA RW25L4.2482790Kyle Weber
2019-02-16PFO216PHKO PHTO PHKO MYNAH JASON MUE TIGAH VELLA PARIS ARBOR ITO RX26 RW260.60.410854Kyle Weber
2019-01-09PFO118PHOG PHKO ONOHI WANSI TAMMI VECKI0.60.411122Kyle Weber
2019-01-03PFO12PHNL PHOG PALAY ROSHE LNY KEIKI CAMPS0.80.414539Kyle Weber
2018-09-01PFO3265YSSY PHNL 8.98.5218508Mark Adeane
2018-08-18PFO139VHHX YSSY 8.68.2181256Mark Adeane